Ueda, Japan
Current Conditions -  °F | °C
As of 9:00 PM on Saturday 25 Oct 2014 (Local Time) from RJNT Reporting Station
Scattered Clouds Scattered Clouds  
Wind Chill: 57°   Ceiling: Unl
Heat Index: 57°   Visibility: 6mi
Dew Point: 48°   Wind: 2mph
Humidity: 72%   Direction: NA
Pressure: 30.15"   Gusts: NA
Location:  36.4°N, 138.25°E
Report Text: RJNT 251200Z VRB02KT 9999 SCT080 14/09 Q1021
Loading
Personal Weather Stations






























Interactive Weather Map
Tropical Storm Tracking
New forecast layout! Learn more

10-Day Weather Forecast

Advertisements
Track Severe Weather on mobile